createdAt,value
2018-09-05T00:00:31.155Z,22.96
2018-09-05T00:03:00.128Z,22.76
2018-09-05T00:05:29.072Z,22.59
2018-09-05T00:07:58.369Z,22.44
2018-09-05T00:10:27.681Z,22.36
2018-09-05T00:12:56.867Z,22.37
2018-09-05T00:15:25.939Z,22.29
2018-09-05T00:17:55.201Z,22.28
2018-09-05T00:20:24.223Z,22.20
2018-09-05T00:22:53.593Z,22.23
2018-09-05T00:25:22.591Z,22.26
2018-09-05T00:27:51.974Z,22.13
2018-09-05T00:30:21.187Z,21.99
2018-09-05T00:32:50.173Z,21.79
2018-09-05T00:35:19.476Z,21.66
2018-09-05T00:37:48.664Z,21.57
2018-09-05T00:40:17.961Z,21.52
2018-09-05T00:42:47.472Z,21.50
2018-09-05T00:45:16.697Z,21.47
2018-09-05T00:47:45.888Z,21.42
2018-09-05T00:50:15.092Z,21.38
2018-09-05T00:52:44.364Z,21.39
2018-09-05T00:55:13.431Z,21.37
2018-09-05T00:57:42.817Z,21.38
2018-09-05T01:00:12.064Z,21.34
2018-09-05T01:02:41.503Z,21.41
2018-09-05T01:05:10.752Z,21.55
2018-09-05T01:07:39.990Z,21.65
2018-09-05T01:10:09.430Z,21.65
2018-09-05T01:12:38.338Z,21.69
2018-09-05T01:15:07.551Z,21.73
2018-09-05T01:17:36.936Z,21.73
2018-09-05T01:20:06.260Z,21.83
2018-09-05T01:22:35.627Z,21.88
2018-09-05T01:25:04.858Z,21.95
2018-09-05T01:27:33.994Z,21.92
2018-09-05T01:30:03.099Z,21.99
2018-09-05T01:32:32.344Z,21.96
2018-09-05T01:35:01.580Z,21.93
2018-09-05T01:37:30.776Z,21.86
2018-09-05T01:39:59.725Z,21.76
2018-09-05T01:42:29.059Z,21.73
2018-09-05T01:44:58.060Z,21.71
2018-09-05T01:47:27.357Z,21.69
2018-09-05T01:49:56.557Z,21.64
2018-09-05T01:52:25.703Z,21.61
2018-09-05T01:54:55.015Z,21.64
2018-09-05T01:57:24.221Z,21.64
2018-09-05T01:59:53.250Z,21.66
2018-09-05T02:02:22.456Z,21.72
2018-09-05T02:04:51.776Z,21.75
2018-09-05T02:07:20.671Z,21.76
2018-09-05T02:09:50.131Z,21.74
2018-09-05T02:12:19.308Z,21.71
2018-09-05T02:14:48.527Z,21.75
2018-09-05T02:17:17.710Z,21.89
2018-09-05T02:19:46.924Z,21.93
2018-09-05T02:22:16.452Z,21.82
2018-09-05T02:24:45.959Z,21.88
2018-09-05T02:27:15.420Z,21.99
2018-09-05T02:29:44.570Z,21.96
2018-09-05T02:32:13.801Z,21.93
2018-09-05T02:34:42.864Z,21.77
2018-09-05T02:37:12.218Z,21.83
2018-09-05T02:39:41.528Z,21.86
2018-09-05T02:42:10.813Z,21.78
2018-09-05T02:44:40.108Z,21.67
2018-09-05T02:47:09.507Z,21.55
2018-09-05T02:49:38.749Z,21.47
2018-09-05T02:52:07.708Z,21.42
2018-09-05T02:54:37.095Z,21.41
2018-09-05T02:57:06.435Z,21.42
2018-09-05T02:59:35.738Z,21.36
2018-09-05T03:02:04.707Z,21.31
2018-09-05T03:04:34.131Z,21.31
2018-09-05T03:07:03.273Z,21.33
2018-09-05T03:09:32.385Z,21.30
2018-09-05T03:12:01.736Z,21.28
2018-09-05T03:14:30.719Z,21.21
2018-09-05T03:17:00.151Z,21.10
2018-09-05T03:19:29.620Z,21.00
2018-09-05T03:21:58.672Z,20.91
2018-09-05T03:24:27.808Z,20.80
2018-09-05T03:26:57.203Z,20.71
2018-09-05T03:29:26.547Z,20.72
2018-09-05T03:31:55.889Z,20.72
2018-09-05T03:34:25.264Z,20.64
2018-09-05T03:36:54.612Z,20.51
2018-09-05T03:39:23.568Z,20.44
2018-09-05T03:41:52.694Z,20.43
2018-09-05T03:44:22.003Z,20.44
2018-09-05T03:46:51.317Z,20.42
2018-09-05T03:49:20.517Z,20.36
2018-09-05T03:51:49.803Z,20.31
2018-09-05T03:54:19.087Z,20.29
2018-09-05T03:56:48.116Z,20.34
2018-09-05T03:59:17.628Z,20.33
2018-09-05T04:01:46.897Z,20.44
2018-09-05T04:04:16.187Z,20.42
2018-09-05T04:06:45.482Z,20.45
2018-09-05T04:09:14.876Z,20.38
2018-09-05T04:11:43.770Z,20.46
2018-09-05T04:14:12.951Z,20.52
2018-09-05T04:16:42.280Z,20.60
2018-09-05T04:19:11.628Z,20.64
2018-09-05T04:21:40.779Z,20.63
2018-09-05T04:24:10.164Z,20.65
2018-09-05T04:26:39.361Z,20.64
2018-09-05T04:29:08.837Z,20.67
2018-09-05T04:31:37.707Z,20.70
2018-09-05T04:34:06.999Z,20.66
2018-09-05T04:36:36.432Z,20.76
2018-09-05T04:39:07.768Z,20.76
2018-09-05T04:41:37.003Z,20.80
2018-09-05T04:44:06.477Z,20.82
2018-09-05T04:46:35.879Z,20.83
2018-09-05T04:49:04.963Z,20.80
2018-09-05T04:51:35.661Z,20.83
2018-09-05T04:54:05.695Z,20.85
2018-09-05T04:56:35.096Z,20.82
2018-09-05T04:59:04.241Z,20.84
2018-09-05T05:01:33.528Z,20.83
2018-09-05T05:04:02.522Z,20.85
2018-09-05T05:06:31.717Z,20.82
2018-09-05T05:09:01.084Z,20.83
2018-09-05T05:11:30.175Z,20.71
2018-09-05T05:13:59.174Z,20.61
2018-09-05T05:16:28.201Z,20.57
2018-09-05T05:18:57.712Z,20.60
2018-09-05T05:21:27.066Z,20.59
2018-09-05T05:23:56.289Z,20.63
2018-09-05T05:26:25.253Z,20.70
2018-09-05T05:28:54.372Z,20.70
2018-09-05T05:31:23.388Z,20.76
2018-09-05T05:33:52.793Z,20.85
2018-09-05T05:36:22.032Z,20.88
2018-09-05T05:38:51.237Z,20.95
2018-09-05T05:41:20.660Z,21.03
2018-09-05T05:43:50.017Z,21.09
2018-09-05T05:46:19.303Z,21.14
2018-09-05T05:48:48.419Z,21.21
2018-09-05T05:51:17.272Z,21.31
2018-09-05T05:53:46.348Z,21.42
2018-09-05T05:56:15.661Z,21.52
2018-09-05T05:58:44.791Z,21.59
2018-09-05T06:01:14.035Z,21.60
2018-09-05T06:03:43.185Z,21.69
2018-09-05T06:06:12.721Z,21.68
2018-09-05T06:08:41.951Z,21.74
2018-09-05T06:11:11.397Z,21.93
2018-09-05T06:13:40.336Z,22.06
2018-09-05T06:16:09.641Z,22.16
2018-09-05T06:18:38.960Z,22.27
2018-09-05T06:21:08.360Z,22.40
2018-09-05T06:23:37.455Z,22.59
2018-09-05T06:26:07.110Z,22.79
2018-09-05T06:28:36.496Z,22.91
2018-09-05T06:31:06.042Z,23.13
2018-09-05T06:33:34.865Z,23.26
2018-09-05T06:36:04.244Z,23.30
2018-09-05T06:38:33.648Z,23.37
2018-09-05T06:41:02.952Z,23.47
2018-09-05T06:43:32.198Z,23.55
2018-09-05T06:46:01.093Z,23.68
2018-09-05T06:48:30.360Z,23.72
2018-09-05T06:51:03.280Z,23.76
2018-09-05T06:53:32.519Z,23.90
2018-09-05T06:56:01.791Z,23.99
2018-09-05T06:58:30.921Z,24.11
2018-09-05T07:01:00.388Z,24.18
2018-09-05T07:03:29.835Z,24.23
2018-09-05T07:05:59.025Z,24.20
2018-09-05T07:08:28.351Z,24.17
2018-09-05T07:10:57.611Z,24.17
2018-09-05T07:13:26.736Z,24.06
2018-09-05T07:15:55.852Z,23.99
2018-09-05T07:18:25.071Z,23.88
2018-09-05T07:21:05.682Z,23.82
2018-09-05T07:23:23.268Z,23.81
2018-09-05T07:25:52.272Z,23.86
2018-09-05T07:28:21.462Z,24.01
2018-09-05T07:30:50.687Z,24.12
2018-09-05T07:33:20.064Z,24.32
2018-09-05T07:35:49.339Z,24.44
2018-09-05T07:38:18.557Z,24.61
2018-09-05T07:40:47.875Z,24.69
2018-09-05T07:43:16.851Z,24.75
2018-09-05T07:45:46.248Z,24.79
2018-09-05T07:48:15.356Z,24.95
2018-09-05T07:50:44.599Z,25.00
2018-09-05T07:53:13.686Z,25.08
2018-09-05T07:55:42.698Z,25.07
2018-09-05T07:58:11.591Z,25.24
2018-09-05T08:00:40.635Z,25.73
2018-09-05T08:03:10.116Z,26.40
2018-09-05T08:05:39.240Z,27.25
2018-09-05T08:08:08.197Z,28.02
2018-09-05T08:10:37.640Z,28.65
2018-09-05T08:13:06.919Z,29.17
2018-09-05T08:15:36.312Z,29.69
2018-09-05T08:18:05.786Z,29.95
2018-09-05T08:20:35.113Z,30.12
2018-09-05T08:23:04.140Z,30.46
2018-09-05T08:25:33.392Z,30.87
2018-09-05T08:28:02.623Z,31.41
2018-09-05T08:30:31.867Z,31.95
2018-09-05T08:33:00.984Z,32.55
2018-09-05T08:35:30.665Z,33.05
2018-09-05T08:37:59.706Z,33.18
2018-09-05T08:40:29.037Z,32.86
2018-09-05T08:42:58.449Z,32.87
2018-09-05T08:45:28.095Z,32.88
2018-09-05T08:47:56.846Z,32.22
2018-09-05T08:50:26.138Z,31.06
2018-09-05T08:52:55.436Z,30.74
2018-09-05T08:55:24.437Z,31.25
2018-09-05T08:57:53.567Z,31.79
2018-09-05T09:00:22.771Z,32.10
2018-09-05T09:02:51.747Z,32.28
2018-09-05T09:05:20.815Z,32.51
2018-09-05T09:07:49.863Z,32.63
2018-09-05T09:10:19.431Z,32.45
2018-09-05T09:12:48.632Z,32.26
2018-09-05T09:15:17.902Z,32.01
2018-09-05T09:17:46.995Z,31.93
2018-09-05T09:20:16.044Z,31.82
2018-09-05T09:22:45.049Z,31.84
2018-09-05T09:25:14.517Z,31.71
2018-09-05T09:27:43.919Z,31.80
2018-09-05T09:30:13.300Z,32.21
2018-09-05T09:32:42.567Z,32.05
2018-09-05T09:35:11.888Z,32.14
2018-09-05T09:37:41.325Z,32.82
2018-09-05T09:40:10.636Z,33.48
2018-09-05T09:42:39.877Z,33.01
2018-09-05T09:45:09.273Z,32.16
2018-09-05T09:47:38.387Z,32.02
2018-09-05T09:50:07.640Z,32.68
2018-09-05T09:52:39.237Z,33.00
2018-09-05T09:55:09.388Z,34.34
2018-09-05T09:57:39.007Z,35.16
2018-09-05T10:00:08.620Z,34.28
2018-09-05T10:02:42.927Z,33.40
2018-09-05T10:05:17.221Z,32.45
2018-09-05T10:08:51.149Z,31.68
2018-09-05T10:11:24.542Z,31.07
2018-09-05T10:13:58.946Z,31.34
2018-09-05T10:16:33.391Z,33.21
2018-09-05T10:19:06.715Z,35.30
2018-09-05T10:21:35.744Z,36.42
2018-09-05T10:24:36.920Z,37.34
2018-09-05T10:27:06.228Z,36.87
2018-09-05T10:29:35.712Z,35.78
2018-09-05T10:32:04.944Z,34.92
2018-09-05T10:34:34.151Z,34.35
2018-09-05T10:37:03.555Z,35.22
2018-09-05T10:39:32.832Z,36.03
2018-09-05T10:42:02.055Z,35.56
2018-09-05T10:44:31.473Z,34.81
2018-09-05T10:47:00.906Z,34.21
2018-09-05T10:49:30.301Z,33.61
2018-09-05T10:52:07.072Z,32.83
2018-09-05T10:54:36.239Z,32.58
2018-09-05T10:57:05.749Z,32.21
2018-09-05T10:59:34.934Z,31.85
2018-09-05T11:02:04.097Z,32.00
2018-09-05T11:04:33.294Z,33.39
2018-09-05T11:07:02.233Z,34.78
2018-09-05T11:09:31.504Z,35.59
2018-09-05T11:12:00.758Z,36.16
2018-09-05T11:14:30.160Z,36.84
2018-09-05T11:16:59.507Z,37.71
2018-09-05T11:19:28.451Z,37.21
2018-09-05T11:21:57.711Z,35.90
2018-09-05T11:24:26.936Z,33.78
2018-09-05T11:26:56.204Z,33.00
2018-09-05T11:29:25.496Z,32.57
2018-09-05T11:31:54.851Z,32.27
2018-09-05T11:34:23.737Z,31.56
2018-09-05T11:36:52.998Z,31.18
2018-09-05T11:39:22.423Z,30.90
2018-09-05T11:41:51.680Z,30.39
2018-09-05T11:44:21.024Z,29.91
2018-09-05T11:46:49.915Z,29.67
2018-09-05T11:49:19.429Z,29.32
2018-09-05T11:51:48.639Z,29.04
2018-09-05T11:54:17.883Z,28.87
2018-09-05T11:56:47.243Z,28.49
2018-09-05T11:59:16.621Z,28.12
2018-09-05T12:01:45.731Z,27.90
2018-09-05T12:04:14.995Z,27.72
2018-09-05T12:06:44.523Z,27.69
2018-09-05T12:09:14.063Z,27.73
2018-09-05T12:11:43.004Z,27.98
2018-09-05T12:14:12.277Z,27.81
2018-09-05T12:16:41.813Z,27.65
2018-09-05T12:19:11.008Z,27.46
2018-09-05T12:21:40.271Z,27.44
2018-09-05T12:24:09.444Z,27.26
2018-09-05T12:26:38.426Z,27.17
2018-09-05T12:29:10.544Z,27.04
2018-09-05T12:31:40.308Z,26.82
2018-09-05T12:34:09.153Z,26.93
2018-09-05T12:36:38.440Z,26.88
2018-09-05T12:39:10.000Z,26.88
2018-09-05T12:41:39.488Z,26.85
2018-09-05T12:44:08.759Z,26.88
2018-09-05T12:46:38.265Z,26.98
2018-09-05T12:49:07.604Z,27.01
2018-09-05T12:51:36.651Z,26.89
2018-09-05T12:54:06.396Z,26.89
2018-09-05T12:56:35.729Z,26.90
2018-09-05T12:59:05.116Z,26.81
2018-09-05T13:01:34.588Z,26.87
2018-09-05T13:04:03.917Z,26.78
2018-09-05T13:06:32.971Z,26.78
2018-09-05T13:09:02.206Z,26.81
2018-09-05T13:11:31.197Z,27.33
2018-09-05T13:14:00.461Z,28.32
2018-09-05T13:16:29.822Z,29.09
2018-09-05T13:18:59.208Z,29.26
2018-09-05T13:21:28.553Z,28.95
2018-09-05T13:23:57.874Z,28.70
2018-09-05T13:26:27.051Z,28.24
2018-09-05T13:28:56.255Z,27.79
2018-09-05T13:31:25.525Z,27.56
2018-09-05T13:33:54.707Z,27.43
2018-09-05T13:36:23.748Z,27.23
2018-09-05T13:38:52.991Z,27.15
2018-09-05T13:41:22.142Z,27.04
2018-09-05T13:43:51.345Z,26.92
2018-09-05T13:46:20.747Z,26.92
2018-09-05T13:48:49.844Z,26.88
2018-09-05T13:51:18.997Z,26.92
2018-09-05T13:53:48.027Z,26.96
2018-09-05T13:56:17.187Z,26.85
2018-09-05T13:58:46.430Z,26.72
2018-09-05T14:01:15.757Z,26.79
2018-09-05T14:03:44.728Z,26.87
2018-09-05T14:06:14.009Z,26.98
2018-09-05T14:08:43.072Z,27.14
2018-09-05T14:11:12.474Z,27.33
2018-09-05T14:13:41.898Z,27.35
2018-09-05T14:16:10.979Z,27.34
2018-09-05T14:18:40.232Z,27.17
2018-09-05T14:21:09.556Z,26.88
2018-09-05T14:23:38.927Z,26.66
2018-09-05T14:26:08.296Z,26.43
2018-09-05T14:28:37.564Z,26.11
2018-09-05T14:31:06.887Z,25.77
2018-09-05T14:33:36.287Z,25.52
2018-09-05T14:36:05.636Z,25.31
2018-09-05T14:38:34.827Z,25.19
2018-09-05T14:41:03.967Z,24.88
2018-09-05T14:43:32.958Z,24.68
2018-09-05T14:46:02.268Z,24.45
2018-09-05T14:48:31.267Z,24.18
2018-09-05T14:51:00.455Z,23.91
2018-09-05T14:53:29.719Z,23.69
2018-09-05T14:55:59.067Z,23.56
2018-09-05T14:58:28.410Z,23.52
2018-09-05T15:00:57.904Z,23.46
2018-09-05T15:03:27.208Z,23.45
2018-09-05T15:05:56.671Z,23.55
2018-09-05T15:08:26.119Z,23.40
2018-09-05T15:10:55.132Z,23.43
2018-09-05T15:13:24.363Z,23.53
2018-09-05T15:15:53.761Z,23.63
2018-09-05T15:18:22.995Z,23.57
2018-09-05T15:20:52.135Z,23.49
2018-09-05T15:23:21.356Z,23.46
2018-09-05T15:25:50.303Z,23.43
2018-09-05T15:28:19.580Z,23.42
2018-09-05T15:30:48.839Z,23.48
2018-09-05T15:33:18.131Z,23.46
2018-09-05T15:35:47.448Z,23.45
2018-09-05T15:38:16.650Z,23.43
2018-09-05T15:40:46.101Z,23.32
2018-09-05T15:43:15.379Z,23.13
2018-09-05T15:45:44.854Z,23.05
2018-09-05T15:48:14.187Z,23.16
2018-09-05T15:50:43.535Z,23.25
2018-09-05T15:53:12.800Z,23.12
2018-09-05T15:55:41.981Z,23.04
2018-09-05T15:58:11.336Z,23.11
2018-09-05T16:00:40.556Z,22.99
2018-09-05T16:03:09.971Z,23.03
2018-09-05T16:05:39.168Z,23.02
2018-09-05T16:08:08.913Z,23.10
2018-09-05T16:10:38.568Z,23.39
2018-09-05T16:13:07.843Z,23.36
2018-09-05T16:15:37.175Z,23.48
2018-09-05T16:18:06.479Z,23.50
2018-09-05T16:20:35.688Z,23.51
2018-09-05T16:23:05.147Z,23.41
2018-09-05T16:25:34.171Z,23.45
2018-09-05T16:28:03.121Z,23.43
2018-09-05T16:30:32.373Z,23.36
2018-09-05T16:33:01.769Z,23.44
2018-09-05T16:35:31.084Z,23.35
2018-09-05T16:38:00.387Z,23.42
2018-09-05T16:40:29.830Z,23.42
2018-09-05T16:42:59.204Z,23.37
2018-09-05T16:45:29.123Z,23.29
2018-09-05T16:47:58.659Z,23.31
2018-09-05T16:50:27.799Z,23.30
2018-09-05T16:52:56.937Z,23.34
2018-09-05T16:55:26.388Z,23.29
2018-09-05T16:57:55.885Z,23.20
2018-09-05T17:00:25.108Z,23.13
2018-09-05T17:02:54.353Z,23.09
2018-09-05T17:05:23.687Z,23.09
2018-09-05T17:07:53.032Z,23.04
2018-09-05T17:10:22.469Z,22.97
2018-09-05T17:12:52.051Z,22.94
2018-09-05T17:15:21.436Z,22.95
2018-09-05T17:17:50.952Z,22.89
2018-09-05T17:20:20.311Z,22.90
2018-09-05T17:22:49.556Z,22.78
2018-09-05T17:25:18.472Z,22.64
2018-09-05T17:27:47.739Z,22.51
2018-09-05T17:30:17.032Z,22.41
2018-09-05T17:32:46.380Z,22.38
2018-09-05T17:35:15.462Z,22.35
2018-09-05T17:37:44.808Z,22.40
2018-09-05T17:40:14.132Z,22.43
2018-09-05T17:42:43.544Z,22.50
2018-09-05T17:45:12.931Z,22.52
2018-09-05T17:47:42.014Z,22.54
2018-09-05T17:50:11.310Z,22.58
2018-09-05T17:52:42.364Z,22.60
2018-09-05T17:55:11.386Z,22.60
2018-09-05T17:57:40.576Z,22.60
2018-09-05T18:02:38.152Z,22.60
2018-09-05T18:05:07.447Z,22.58
2018-09-05T18:07:36.823Z,22.56
2018-09-05T18:10:06.163Z,22.56
2018-09-05T18:12:35.234Z,22.49
2018-09-05T18:15:04.758Z,22.50
2018-09-05T18:17:34.490Z,22.52
2018-09-05T18:20:03.872Z,22.55
2018-09-05T18:22:33.182Z,22.44
2018-09-05T18:25:02.186Z,22.28
2018-09-05T18:27:31.424Z,22.03
2018-09-05T18:30:00.407Z,21.84
2018-09-05T18:32:29.603Z,21.68
2018-09-05T18:34:59.082Z,21.58
2018-09-05T18:37:28.407Z,21.62
2018-09-05T18:39:57.908Z,21.69
2018-09-05T18:42:26.861Z,21.76
2018-09-05T18:44:56.164Z,21.95
2018-09-05T18:47:25.145Z,21.93
2018-09-05T18:49:54.619Z,21.77
2018-09-05T18:52:23.961Z,21.56
2018-09-05T18:54:53.049Z,21.54
2018-09-05T18:57:22.433Z,21.55
2018-09-05T18:59:51.645Z,21.58
2018-09-05T19:02:20.769Z,21.71
2018-09-05T19:04:50.407Z,21.61
2018-09-05T19:07:19.360Z,21.62
2018-09-05T19:09:48.689Z,21.62
2018-09-05T19:12:18.138Z,21.78
2018-09-05T19:14:47.195Z,21.83
2018-09-05T19:17:16.620Z,21.78
2018-09-05T19:19:45.693Z,21.72
2018-09-05T19:22:14.920Z,21.71
2018-09-05T19:24:44.575Z,21.65
2018-09-05T19:27:13.576Z,21.63
2018-09-05T19:29:42.732Z,21.58
2018-09-05T19:32:11.682Z,21.54
2018-09-05T19:34:41.114Z,21.50
2018-09-05T19:37:10.808Z,21.60
2018-09-05T19:39:40.530Z,21.61
2018-09-05T19:42:10.198Z,21.45
2018-09-05T19:44:39.371Z,21.34
2018-09-05T19:47:08.623Z,21.18
2018-09-05T19:49:37.779Z,21.25
2018-09-05T19:52:07.156Z,21.20
2018-09-05T19:54:36.459Z,21.23
2018-09-05T19:57:05.669Z,21.17
2018-09-05T19:59:34.967Z,21.13
2018-09-05T20:02:04.335Z,21.13
2018-09-05T20:04:33.532Z,21.20
2018-09-05T20:07:02.614Z,21.20
2018-09-05T20:09:31.681Z,21.16
2018-09-05T20:12:00.913Z,21.08
2018-09-05T20:14:30.035Z,21.06
2018-09-05T20:16:59.517Z,20.99
2018-09-05T20:19:28.988Z,20.97
2018-09-05T20:21:58.202Z,20.93
2018-09-05T20:24:27.538Z,20.90
2018-09-05T20:26:56.801Z,20.93
2018-09-05T20:29:26.011Z,20.93
2018-09-05T20:31:55.184Z,21.01
2018-09-05T20:34:24.299Z,21.01
2018-09-05T20:36:53.903Z,21.08
2018-09-05T20:39:23.221Z,21.09
2018-09-05T20:41:52.484Z,21.10
2018-09-05T20:44:21.745Z,21.14
2018-09-05T20:46:51.040Z,21.17
2018-09-05T20:49:20.045Z,21.18
2018-09-05T20:51:49.287Z,21.20
2018-09-05T20:54:18.675Z,21.16
2018-09-05T20:56:47.905Z,21.18
2018-09-05T20:59:17.167Z,21.18
2018-09-05T21:01:46.177Z,21.18
2018-09-05T21:04:15.523Z,21.21
2018-09-05T21:06:44.761Z,21.21
2018-09-05T21:09:14.031Z,21.21
2018-09-05T21:11:43.159Z,21.28
2018-09-05T21:14:12.051Z,21.33
2018-09-05T21:16:41.062Z,21.32
2018-09-05T21:19:10.394Z,21.34
2018-09-05T21:21:39.599Z,21.35
2018-09-05T21:24:08.761Z,21.31
2018-09-05T21:26:38.218Z,21.32
2018-09-05T21:29:07.395Z,21.31
2018-09-05T21:31:36.589Z,21.27
2018-09-05T21:34:05.543Z,21.27
2018-09-05T21:36:34.794Z,21.28
2018-09-05T21:39:04.880Z,21.32
2018-09-05T21:41:34.075Z,21.30
2018-09-05T21:44:03.313Z,21.31
2018-09-05T21:46:32.705Z,21.30
2018-09-05T21:49:02.083Z,21.33
2018-09-05T21:51:31.274Z,21.37
2018-09-05T21:54:00.427Z,21.37
2018-09-05T21:56:29.648Z,21.38
2018-09-05T21:58:59.123Z,21.42
2018-09-05T22:01:28.399Z,21.44
2018-09-05T22:03:57.715Z,21.48
2018-09-05T22:06:26.684Z,21.44
2018-09-05T22:08:55.971Z,21.54
2018-09-05T22:11:26.433Z,21.63
2018-09-05T22:13:56.456Z,21.54
2018-09-05T22:16:25.895Z,21.51
2018-09-05T22:18:54.851Z,21.46
2018-09-05T22:21:24.092Z,21.40
2018-09-05T22:23:53.556Z,21.38
2018-09-05T22:26:22.376Z,21.30
2018-09-05T22:28:51.724Z,21.28
2018-09-05T22:31:20.805Z,21.27
2018-09-05T22:33:49.988Z,21.24
2018-09-05T22:36:19.365Z,21.28
2018-09-05T22:38:48.336Z,21.35
2018-09-05T22:41:17.545Z,21.43
2018-09-05T22:43:57.419Z,21.47
2018-09-05T22:46:37.460Z,21.48
2018-09-05T22:49:57.746Z,21.40
2018-09-05T22:53:08.022Z,21.30
2018-09-05T22:55:53.238Z,21.25
2018-09-05T22:58:36.838Z,21.21
2018-09-05T23:02:18.321Z,21.20
2018-09-05T23:04:57.379Z,21.16
2018-09-05T23:07:37.649Z,21.19
2018-09-05T23:10:17.698Z,21.15
2018-09-05T23:12:57.488Z,21.16
2018-09-05T23:15:37.314Z,21.20
2018-09-05T23:18:18.315Z,21.25
2018-09-05T23:21:25.448Z,21.31
2018-09-05T23:23:57.585Z,21.36
2018-09-05T23:26:27.139Z,21.40
2018-09-05T23:28:56.339Z,21.46
2018-09-05T23:31:25.501Z,21.42
2018-09-05T23:33:54.972Z,21.43
2018-09-05T23:36:24.595Z,21.44
2018-09-05T23:38:53.872Z,21.39
2018-09-05T23:41:23.212Z,21.38
2018-09-05T23:43:52.356Z,21.40
2018-09-05T23:46:21.315Z,21.33
2018-09-05T23:48:50.980Z,21.32
2018-09-05T23:51:20.280Z,21.31
2018-09-05T23:53:49.302Z,21.39
2018-09-05T23:56:18.627Z,21.39
2018-09-05T23:58:48.051Z,21.35
